sensor_id;sensor_type;location;lat;lon;timestamp;P1;durP1;ratioP1;P2;durP2;ratioP2
21192;SDS011;10754;51.106;7.164;2023-12-14T00:00:27;5.83;;;4.83;;
21192;SDS011;10754;51.106;7.164;2023-12-14T00:02:53;6.60;;;6.00;;
21192;SDS011;10754;51.106;7.164;2023-12-14T00:05:19;7.73;;;6.20;;
21192;SDS011;10754;51.106;7.164;2023-12-14T00:07:44;6.17;;;5.57;;
21192;SDS011;10754;51.106;7.164;2023-12-14T00:10:10;7.03;;;6.20;;
21192;SDS011;10754;51.106;7.164;2023-12-14T00:12:37;6.73;;;5.97;;
21192;SDS011;10754;51.106;7.164;2023-12-14T00:15:03;7.63;;;6.07;;
21192;SDS011;10754;51.106;7.164;2023-12-14T00:17:29;7.00;;;6.30;;
21192;SDS011;10754;51.106;7.164;2023-12-14T00:19:54;6.77;;;6.03;;
21192;SDS011;10754;51.106;7.164;2023-12-14T00:22:20;9.67;;;6.17;;
21192;SDS011;10754;51.106;7.164;2023-12-14T00:24:45;7.00;;;6.30;;
21192;SDS011;10754;51.106;7.164;2023-12-14T00:27:11;7.73;;;6.40;;
21192;SDS011;10754;51.106;7.164;2023-12-14T00:29:36;8.25;;;6.78;;
21192;SDS011;10754;51.106;7.164;2023-12-14T00:32:02;7.43;;;6.50;;
21192;SDS011;10754;51.106;7.164;2023-12-14T00:34:27;7.10;;;6.00;;
21192;SDS011;10754;51.106;7.164;2023-12-14T00:36:53;6.17;;;5.57;;
21192;SDS011;10754;51.106;7.164;2023-12-14T00:39:18;7.60;;;6.90;;
21192;SDS011;10754;51.106;7.164;2023-12-14T00:41:44;7.63;;;6.93;;
21192;SDS011;10754;51.106;7.164;2023-12-14T00:44:09;7.43;;;6.73;;
21192;SDS011;10754;51.106;7.164;2023-12-14T00:46:35;9.90;;;7.57;;
21192;SDS011;10754;51.106;7.164;2023-12-14T00:49:00;8.10;;;7.30;;
21192;SDS011;10754;51.106;7.164;2023-12-14T00:51:27;9.17;;;7.77;;
21192;SDS011;10754;51.106;7.164;2023-12-14T00:53:52;9.90;;;7.53;;
21192;SDS011;10754;51.106;7.164;2023-12-14T00:56:18;8.63;;;7.07;;
21192;SDS011;10754;51.106;7.164;2023-12-14T00:58:43;9.67;;;7.80;;
21192;SDS011;10754;51.106;7.164;2023-12-14T01:01:09;8.40;;;7.27;;
21192;SDS011;10754;51.106;7.164;2023-12-14T01:03:35;8.63;;;7.83;;
21192;SDS011;10754;51.106;7.164;2023-12-14T01:06:01;8.50;;;7.75;;
21192;SDS011;10754;51.106;7.164;2023-12-14T01:08:26;8.70;;;7.87;;
21192;SDS011;10754;51.106;7.164;2023-12-14T01:10:52;9.07;;;8.17;;
21192;SDS011;10754;51.106;7.164;2023-12-14T01:13:17;8.80;;;7.90;;
21192;SDS011;10754;51.106;7.164;2023-12-14T01:15:43;8.80;;;8.00;;
21192;SDS011;10754;51.106;7.164;2023-12-14T01:18:09;9.50;;;8.60;;
21192;SDS011;10754;51.106;7.164;2023-12-14T01:20:34;8.90;;;8.10;;
21192;SDS011;10754;51.106;7.164;2023-12-14T01:23:00;9.37;;;8.50;;
21192;SDS011;10754;51.106;7.164;2023-12-14T01:25:25;9.77;;;8.77;;
21192;SDS011;10754;51.106;7.164;2023-12-14T01:27:51;9.90;;;9.00;;
21192;SDS011;10754;51.106;7.164;2023-12-14T01:30:16;9.40;;;8.50;;
21192;SDS011;10754;51.106;7.164;2023-12-14T01:32:42;9.87;;;8.77;;
21192;SDS011;10754;51.106;7.164;2023-12-14T01:35:07;9.70;;;8.70;;
21192;SDS011;10754;51.106;7.164;2023-12-14T01:37:33;9.10;;;8.10;;
21192;SDS011;10754;51.106;7.164;2023-12-14T01:39:59;9.03;;;8.23;;
21192;SDS011;10754;51.106;7.164;2023-12-14T01:42:24;9.60;;;8.70;;
21192;SDS011;10754;51.106;7.164;2023-12-14T01:44:51;10.33;;;8.70;;
21192;SDS011;10754;51.106;7.164;2023-12-14T01:47:16;10.27;;;9.27;;
21192;SDS011;10754;51.106;7.164;2023-12-14T01:49:42;12.23;;;10.93;;
21192;SDS011;10754;51.106;7.164;2023-12-14T01:52:08;10.87;;;9.73;;
21192;SDS011;10754;51.106;7.164;2023-12-14T01:54:33;12.70;;;11.37;;
21192;SDS011;10754;51.106;7.164;2023-12-14T01:56:59;12.57;;;11.27;;
21192;SDS011;10754;51.106;7.164;2023-12-14T01:59:24;11.50;;;10.37;;
21192;SDS011;10754;51.106;7.164;2023-12-14T02:01:54;13.37;;;11.23;;
21192;SDS011;10754;51.106;7.164;2023-12-14T02:04:22;12.50;;;10.60;;
21192;SDS011;10754;51.106;7.164;2023-12-14T02:06:49;14.00;;;11.48;;
21192;SDS011;10754;51.106;7.164;2023-12-14T02:09:14;13.47;;;12.07;;
21192;SDS011;10754;51.106;7.164;2023-12-14T02:11:40;16.52;;;13.80;;
21192;SDS011;10754;51.106;7.164;2023-12-14T02:14:06;22.67;;;13.50;;
21192;SDS011;10754;51.106;7.164;2023-12-14T02:16:31;15.47;;;12.30;;
21192;SDS011;10754;51.106;7.164;2023-12-14T02:18:57;13.47;;;12.07;;
21192;SDS011;10754;51.106;7.164;2023-12-14T02:21:23;13.77;;;12.37;;
21192;SDS011;10754;51.106;7.164;2023-12-14T02:23:48;12.80;;;10.83;;
21192;SDS011;10754;51.106;7.164;2023-12-14T02:26:14;11.20;;;10.07;;
21192;SDS011;10754;51.106;7.164;2023-12-14T02:28:39;10.57;;;9.23;;
21192;SDS011;10754;51.106;7.164;2023-12-14T02:31:05;8.70;;;7.90;;
21192;SDS011;10754;51.106;7.164;2023-12-14T02:33:31;8.60;;;7.70;;
21192;SDS011;10754;51.106;7.164;2023-12-14T02:35:57;8.60;;;7.80;;
21192;SDS011;10754;51.106;7.164;2023-12-14T02:38:22;8.40;;;7.60;;
21192;SDS011;10754;51.106;7.164;2023-12-14T02:40:48;9.20;;;8.40;;
21192;SDS011;10754;51.106;7.164;2023-12-14T02:43:15;9.43;;;8.53;;
21192;SDS011;10754;51.106;7.164;2023-12-14T02:45:41;8.90;;;8.07;;
21192;SDS011;10754;51.106;7.164;2023-12-14T02:48:06;10.07;;;9.07;;
21192;SDS011;10754;51.106;7.164;2023-12-14T02:50:32;8.73;;;7.93;;
21192;SDS011;10754;51.106;7.164;2023-12-14T02:52:57;9.00;;;8.10;;
21192;SDS011;10754;51.106;7.164;2023-12-14T02:55:23;9.13;;;8.33;;
21192;SDS011;10754;51.106;7.164;2023-12-14T04:20:19;3.50;;;3.20;;
21192;SDS011;10754;51.106;7.164;2023-12-14T05:04:13;14.53;;;13.13;;
21192;SDS011;10754;51.106;7.164;2023-12-14T05:18:27;10.43;;;9.43;;
21192;SDS011;10754;51.106;7.164;2023-12-14T05:21:29;10.57;;;9.50;;
21192;SDS011;10754;51.106;7.164;2023-12-14T05:23:54;12.33;;;11.13;;
21192;SDS011;10754;51.106;7.164;2023-12-14T05:26:20;12.57;;;11.37;;
21192;SDS011;10754;51.106;7.164;2023-12-14T05:28:45;11.50;;;10.40;;
21192;SDS011;10754;51.106;7.164;2023-12-14T05:31:11;11.70;;;10.60;;
21192;SDS011;10754;51.106;7.164;2023-12-14T05:33:37;13.27;;;11.97;;
21192;SDS011;10754;51.106;7.164;2023-12-14T05:36:03;13.37;;;12.00;;
21192;SDS011;10754;51.106;7.164;2023-12-14T05:38:33;14.97;;;13.57;;
21192;SDS011;10754;51.106;7.164;2023-12-14T05:41:01;14.10;;;12.80;;
21192;SDS011;10754;51.106;7.164;2023-12-14T05:43:27;14.10;;;12.70;;
21192;SDS011;10754;51.106;7.164;2023-12-14T05:45:52;14.60;;;13.30;;
21192;SDS011;10754;51.106;7.164;2023-12-14T05:48:18;14.40;;;12.93;;
21192;SDS011;10754;51.106;7.164;2023-12-14T05:50:43;14.03;;;12.53;;
21192;SDS011;10754;51.106;7.164;2023-12-14T05:53:09;13.47;;;12.20;;
21192;SDS011;10754;51.106;7.164;2023-12-14T05:55:34;13.30;;;12.00;;
21192;SDS011;10754;51.106;7.164;2023-12-14T05:58:00;14.03;;;12.57;;
21192;SDS011;10754;51.106;7.164;2023-12-14T06:00:25;12.73;;;11.53;;
21192;SDS011;10754;51.106;7.164;2023-12-14T06:02:51;11.50;;;10.40;;
21192;SDS011;10754;51.106;7.164;2023-12-14T06:05:16;12.40;;;11.20;;
21192;SDS011;10754;51.106;7.164;2023-12-14T06:07:42;11.77;;;10.67;;
21192;SDS011;10754;51.106;7.164;2023-12-14T06:10:07;11.17;;;10.17;;
21192;SDS011;10754;51.106;7.164;2023-12-14T06:12:34;11.50;;;10.40;;
21192;SDS011;10754;51.106;7.164;2023-12-14T06:15:00;10.00;;;9.10;;
21192;SDS011;10754;51.106;7.164;2023-12-14T06:17:25;10.80;;;9.70;;
21192;SDS011;10754;51.106;7.164;2023-12-14T06:19:51;9.43;;;8.53;;
21192;SDS011;10754;51.106;7.164;2023-12-14T06:22:16;8.97;;;8.07;;
21192;SDS011;10754;51.106;7.164;2023-12-14T06:24:42;9.30;;;8.50;;
21192;SDS011;10754;51.106;7.164;2023-12-14T06:27:08;9.10;;;8.20;;
21192;SDS011;10754;51.106;7.164;2023-12-14T06:29:33;9.80;;;8.80;;
21192;SDS011;10754;51.106;7.164;2023-12-14T06:31:59;8.97;;;8.03;;
21192;SDS011;10754;51.106;7.164;2023-12-14T06:34:24;9.03;;;8.13;;
21192;SDS011;10754;51.106;7.164;2023-12-14T06:36:50;11.10;;;10.10;;
21192;SDS011;10754;51.106;7.164;2023-12-14T06:39:15;10.03;;;9.13;;
21192;SDS011;10754;51.106;7.164;2023-12-14T06:41:41;11.73;;;10.60;;
21192;SDS011;10754;51.106;7.164;2023-12-14T06:44:06;12.13;;;10.93;;
21192;SDS011;10754;51.106;7.164;2023-12-14T06:46:34;11.63;;;10.43;;
21192;SDS011;10754;51.106;7.164;2023-12-14T06:48:59;11.53;;;10.33;;
21192;SDS011;10754;51.106;7.164;2023-12-14T06:51:25;11.50;;;10.30;;
21192;SDS011;10754;51.106;7.164;2023-12-14T06:53:50;11.30;;;10.20;;
21192;SDS011;10754;51.106;7.164;2023-12-14T06:56:16;10.97;;;9.90;;
21192;SDS011;10754;51.106;7.164;2023-12-14T06:58:42;9.80;;;8.90;;
21192;SDS011;10754;51.106;7.164;2023-12-14T07:01:15;9.90;;;9.00;;
21192;SDS011;10754;51.106;7.164;2023-12-14T07:03:43;9.37;;;8.57;;
21192;SDS011;10754;51.106;7.164;2023-12-14T07:06:15;10.13;;;9.23;;
21192;SDS011;10754;51.106;7.164;2023-12-14T07:08:43;9.73;;;8.93;;
21192;SDS011;10754;51.106;7.164;2023-12-14T07:11:09;9.40;;;8.50;;
21192;SDS011;10754;51.106;7.164;2023-12-14T07:13:35;9.83;;;8.90;;
21192;SDS011;10754;51.106;7.164;2023-12-14T07:16:03;9.47;;;8.57;;
21192;SDS011;10754;51.106;7.164;2023-12-14T07:18:38;10.80;;;9.80;;
21192;SDS011;10754;51.106;7.164;2023-12-14T07:21:05;10.80;;;9.80;;
21192;SDS011;10754;51.106;7.164;2023-12-14T07:23:31;12.20;;;11.07;;
21192;SDS011;10754;51.106;7.164;2023-12-14T07:25:57;12.37;;;11.20;;
21192;SDS011;10754;51.106;7.164;2023-12-14T07:28:23;13.13;;;11.83;;
21192;SDS011;10754;51.106;7.164;2023-12-14T07:30:49;12.77;;;11.53;;
21192;SDS011;10754;51.106;7.164;2023-12-14T07:33:15;12.90;;;11.60;;
21192;SDS011;10754;51.106;7.164;2023-12-14T07:35:41;12.63;;;11.33;;
21192;SDS011;10754;51.106;7.164;2023-12-14T07:38:06;14.07;;;12.57;;
21192;SDS011;10754;51.106;7.164;2023-12-14T07:40:32;14.87;;;13.23;;
21192;SDS011;10754;51.106;7.164;2023-12-14T07:42:58;14.10;;;12.73;;
21192;SDS011;10754;51.106;7.164;2023-12-14T07:45:23;14.10;;;12.70;;
21192;SDS011;10754;51.106;7.164;2023-12-14T07:47:49;14.07;;;12.67;;
21192;SDS011;10754;51.106;7.164;2023-12-14T07:50:15;14.23;;;12.87;;
21192;SDS011;10754;51.106;7.164;2023-12-14T07:52:40;14.20;;;12.70;;
21192;SDS011;10754;51.106;7.164;2023-12-14T07:55:06;13.73;;;12.10;;
21192;SDS011;10754;51.106;7.164;2023-12-14T07:57:32;14.33;;;12.93;;
21192;SDS011;10754;51.106;7.164;2023-12-14T07:59:57;15.30;;;13.70;;
21192;SDS011;10754;51.106;7.164;2023-12-14T08:02:23;14.23;;;12.80;;
21192;SDS011;10754;51.106;7.164;2023-12-14T08:04:48;14.50;;;13.07;;
21192;SDS011;10754;51.106;7.164;2023-12-14T08:07:14;12.47;;;11.23;;
21192;SDS011;10754;51.106;7.164;2023-12-14T08:09:40;13.53;;;12.13;;
21192;SDS011;10754;51.106;7.164;2023-12-14T08:12:05;13.53;;;12.23;;
21192;SDS011;10754;51.106;7.164;2023-12-14T08:14:35;14.20;;;12.80;;
21192;SDS011;10754;51.106;7.164;2023-12-14T08:17:02;12.70;;;11.50;;
21192;SDS011;10754;51.106;7.164;2023-12-14T08:19:28;13.10;;;11.80;;
21192;SDS011;10754;51.106;7.164;2023-12-14T08:21:54;12.13;;;11.03;;
21192;SDS011;10754;51.106;7.164;2023-12-14T08:24:19;12.07;;;10.97;;
21192;SDS011;10754;51.106;7.164;2023-12-14T08:26:45;12.40;;;11.20;;
21192;SDS011;10754;51.106;7.164;2023-12-14T08:29:10;12.00;;;10.80;;
21192;SDS011;10754;51.106;7.164;2023-12-14T08:31:36;12.07;;;10.97;;
21192;SDS011;10754;51.106;7.164;2023-12-14T08:34:01;11.80;;;10.70;;
21192;SDS011;10754;51.106;7.164;2023-12-14T08:36:28;11.80;;;10.60;;
21192;SDS011;10754;51.106;7.164;2023-12-14T08:38:54;12.10;;;10.90;;
21192;SDS011;10754;51.106;7.164;2023-12-14T08:41:19;13.20;;;11.80;;
21192;SDS011;10754;51.106;7.164;2023-12-14T08:43:45;13.30;;;11.90;;
21192;SDS011;10754;51.106;7.164;2023-12-14T08:46:10;12.30;;;11.07;;
21192;SDS011;10754;51.106;7.164;2023-12-14T08:48:36;13.07;;;11.73;;
21192;SDS011;10754;51.106;7.164;2023-12-14T08:51:02;12.13;;;10.93;;
21192;SDS011;10754;51.106;7.164;2023-12-14T08:53:29;13.10;;;11.67;;
21192;SDS011;10754;51.106;7.164;2023-12-14T08:55:55;11.03;;;9.93;;
21192;SDS011;10754;51.106;7.164;2023-12-14T08:58:20;13.03;;;11.73;;
21192;SDS011;10754;51.106;7.164;2023-12-14T09:00:46;14.67;;;12.53;;
21192;SDS011;10754;51.106;7.164;2023-12-14T09:03:11;16.43;;;13.37;;
21192;SDS011;10754;51.106;7.164;2023-12-14T09:05:37;16.13;;;14.00;;
21192;SDS011;10754;51.106;7.164;2023-12-14T09:08:06;15.13;;;13.53;;
21192;SDS011;10754;51.106;7.164;2023-12-14T09:10:32;15.47;;;13.97;;
21192;SDS011;10754;51.106;7.164;2023-12-14T09:12:58;16.87;;;15.00;;
21192;SDS011;10754;51.106;7.164;2023-12-14T09:15:25;16.20;;;14.50;;
21192;SDS011;10754;51.106;7.164;2023-12-14T09:17:50;16.27;;;14.57;;
21192;SDS011;10754;51.106;7.164;2023-12-14T09:20:16;14.93;;;13.37;;
21192;SDS011;10754;51.106;7.164;2023-12-14T09:22:41;15.23;;;13.63;;
21192;SDS011;10754;51.106;7.164;2023-12-14T09:25:07;14.27;;;12.77;;
21192;SDS011;10754;51.106;7.164;2023-12-14T09:27:34;16.70;;;15.00;;
21192;SDS011;10754;51.106;7.164;2023-12-14T09:29:59;16.77;;;15.03;;
21192;SDS011;10754;51.106;7.164;2023-12-14T09:32:25;16.97;;;15.23;;
21192;SDS011;10754;51.106;7.164;2023-12-14T09:34:50;16.50;;;14.03;;
21192;SDS011;10754;51.106;7.164;2023-12-14T09:37:17;14.77;;;13.20;;
21192;SDS011;10754;51.106;7.164;2023-12-14T09:39:42;13.30;;;12.00;;
21192;SDS011;10754;51.106;7.164;2023-12-14T09:42:08;16.10;;;12.27;;
21192;SDS011;10754;51.106;7.164;2023-12-14T09:44:34;14.33;;;12.17;;
21192;SDS011;10754;51.106;7.164;2023-12-14T09:47:01;14.23;;;11.87;;
21192;SDS011;10754;51.106;7.164;2023-12-14T09:49:30;14.00;;;12.60;;
21192;SDS011;10754;51.106;7.164;2023-12-14T09:51:56;13.23;;;11.83;;
21192;SDS011;10754;51.106;7.164;2023-12-14T09:54:22;13.83;;;12.43;;
21192;SDS011;10754;51.106;7.164;2023-12-14T09:56:48;17.23;;;15.37;;
21192;SDS011;10754;51.106;7.164;2023-12-14T09:59:14;17.33;;;15.47;;
21192;SDS011;10754;51.106;7.164;2023-12-14T10:01:40;18.97;;;16.53;;
21192;SDS011;10754;51.106;7.164;2023-12-14T10:04:07;19.50;;;17.47;;
21192;SDS011;10754;51.106;7.164;2023-12-14T10:06:37;18.70;;;16.80;;
21192;SDS011;10754;51.106;7.164;2023-12-14T10:09:03;19.30;;;17.00;;
21192;SDS011;10754;51.106;7.164;2023-12-14T10:11:33;18.20;;;16.30;;
21192;SDS011;10754;51.106;7.164;2023-12-14T10:13:59;19.07;;;16.33;;
21192;SDS011;10754;51.106;7.164;2023-12-14T10:16:28;18.33;;;16.33;;
21192;SDS011;10754;51.106;7.164;2023-12-14T10:18:58;18.33;;;16.43;;
21192;SDS011;10754;51.106;7.164;2023-12-14T10:21:27;19.13;;;17.13;;
21192;SDS011;10754;51.106;7.164;2023-12-14T10:23:56;19.20;;;16.37;;
21192;SDS011;10754;51.106;7.164;2023-12-14T10:26:23;18.93;;;16.93;;
21192;SDS011;10754;51.106;7.164;2023-12-14T10:28:50;17.90;;;15.30;;
21192;SDS011;10754;51.106;7.164;2023-12-14T10:31:17;18.07;;;16.17;;
21192;SDS011;10754;51.106;7.164;2023-12-14T10:33:44;17.80;;;16.00;;
21192;SDS011;10754;51.106;7.164;2023-12-14T10:36:11;18.00;;;16.13;;
21192;SDS011;10754;51.106;7.164;2023-12-14T10:38:43;16.63;;;14.83;;
21192;SDS011;10754;51.106;7.164;2023-12-14T10:41:10;17.13;;;15.43;;
21192;SDS011;10754;51.106;7.164;2023-12-14T10:43:38;17.80;;;15.83;;
21192;SDS011;10754;51.106;7.164;2023-12-14T10:46:06;15.37;;;13.90;;
21192;SDS011;10754;51.106;7.164;2023-12-14T10:48:34;16.40;;;14.70;;
21192;SDS011;10754;51.106;7.164;2023-12-14T10:51:02;15.67;;;14.07;;
21192;SDS011;10754;51.106;7.164;2023-12-14T10:53:30;15.43;;;13.93;;
21192;SDS011;10754;51.106;7.164;2023-12-14T10:55:57;15.67;;;14.17;;
21192;SDS011;10754;51.106;7.164;2023-12-14T10:58:25;16.37;;;14.87;;
21192;SDS011;10754;51.106;7.164;2023-12-14T11:01:00;15.47;;;13.97;;
21192;SDS011;10754;51.106;7.164;2023-12-14T11:03:34;15.13;;;13.63;;
21192;SDS011;10754;51.106;7.164;2023-12-14T11:06:00;16.07;;;14.47;;
21192;SDS011;10754;51.106;7.164;2023-12-14T11:08:26;16.83;;;15.20;;
21192;SDS011;10754;51.106;7.164;2023-12-14T11:10:53;15.73;;;14.17;;
21192;SDS011;10754;51.106;7.164;2023-12-14T11:13:22;16.50;;;14.87;;
21192;SDS011;10754;51.106;7.164;2023-12-14T11:15:51;16.10;;;14.50;;
21192;SDS011;10754;51.106;7.164;2023-12-14T11:25:40;15.70;;;14.13;;
21192;SDS011;10754;51.106;7.164;2023-12-14T11:28:06;15.77;;;14.20;;
21192;SDS011;10754;51.106;7.164;2023-12-14T11:30:33;15.80;;;14.10;;
21192;SDS011;10754;51.106;7.164;2023-12-14T11:33:00;16.27;;;14.57;;
21192;SDS011;10754;51.106;7.164;2023-12-14T11:35:25;16.53;;;15.00;;
21192;SDS011;10754;51.106;7.164;2023-12-14T11:37:51;16.13;;;14.63;;
21192;SDS011;10754;51.106;7.164;2023-12-14T11:40:17;16.03;;;14.43;;
21192;SDS011;10754;51.106;7.164;2023-12-14T11:43:00;16.90;;;15.20;;
21192;SDS011;10754;51.106;7.164;2023-12-14T11:45:26;16.17;;;14.67;;
21192;SDS011;10754;51.106;7.164;2023-12-14T11:47:52;16.53;;;14.73;;
21192;SDS011;10754;51.106;7.164;2023-12-14T11:50:18;15.60;;;14.10;;
21192;SDS011;10754;51.106;7.164;2023-12-14T11:52:45;16.77;;;15.07;;
21192;SDS011;10754;51.106;7.164;2023-12-14T11:55:11;15.80;;;14.30;;
21192;SDS011;10754;51.106;7.164;2023-12-14T11:57:36;15.93;;;14.53;;
21192;SDS011;10754;51.106;7.164;2023-12-14T12:00:02;14.70;;;13.33;;
21192;SDS011;10754;51.106;7.164;2023-12-14T12:02:29;15.23;;;13.77;;
21192;SDS011;10754;51.106;7.164;2023-12-14T12:04:58;15.77;;;14.27;;
21192;SDS011;10754;51.106;7.164;2023-12-14T12:07:23;15.47;;;13.93;;
21192;SDS011;10754;51.106;7.164;2023-12-14T12:09:49;14.47;;;13.07;;
21192;SDS011;10754;51.106;7.164;2023-12-14T12:12:14;15.17;;;13.77;;
21192;SDS011;10754;51.106;7.164;2023-12-14T12:14:40;15.33;;;13.83;;
21192;SDS011;10754;51.106;7.164;2023-12-14T12:17:07;15.13;;;13.67;;
21192;SDS011;10754;51.106;7.164;2023-12-14T12:19:33;15.10;;;13.67;;
21192;SDS011;10754;51.106;7.164;2023-12-14T12:21:59;15.23;;;13.73;;
21192;SDS011;10754;51.106;7.164;2023-12-14T12:24:28;14.73;;;13.33;;
21192;SDS011;10754;51.106;7.164;2023-12-14T12:26:54;14.63;;;13.20;;
21192;SDS011;10754;51.106;7.164;2023-12-14T12:29:20;14.63;;;13.03;;
21192;SDS011;10754;51.106;7.164;2023-12-14T12:31:46;14.93;;;13.47;;
21192;SDS011;10754;51.106;7.164;2023-12-14T12:34:14;15.00;;;13.57;;
21192;SDS011;10754;51.106;7.164;2023-12-14T12:36:40;13.20;;;12.00;;
21192;SDS011;10754;51.106;7.164;2023-12-14T12:39:06;13.53;;;12.23;;
21192;SDS011;10754;51.106;7.164;2023-12-14T12:41:32;13.80;;;12.47;;
21192;SDS011;10754;51.106;7.164;2023-12-14T12:43:58;13.33;;;12.03;;
21192;SDS011;10754;51.106;7.164;2023-12-14T12:46:30;13.87;;;12.47;;
21192;SDS011;10754;51.106;7.164;2023-12-14T12:48:58;13.20;;;11.93;;
21192;SDS011;10754;51.106;7.164;2023-12-14T12:51:25;12.97;;;11.77;;
21192;SDS011;10754;51.106;7.164;2023-12-14T12:53:51;13.10;;;11.90;;
21192;SDS011;10754;51.106;7.164;2023-12-14T12:56:20;12.83;;;11.53;;
21192;SDS011;10754;51.106;7.164;2023-12-14T12:58:49;13.17;;;11.87;;
21192;SDS011;10754;51.106;7.164;2023-12-14T13:01:17;12.37;;;11.10;;
21192;SDS011;10754;51.106;7.164;2023-12-14T13:03:45;11.87;;;10.67;;
21192;SDS011;10754;51.106;7.164;2023-12-14T13:06:10;11.37;;;10.37;;
21192;SDS011;10754;51.106;7.164;2023-12-14T13:08:36;11.37;;;10.37;;
21192;SDS011;10754;51.106;7.164;2023-12-14T13:11:07;10.70;;;9.50;;
21192;SDS011;10754;51.106;7.164;2023-12-14T13:13:33;11.33;;;10.33;;
21192;SDS011;10754;51.106;7.164;2023-12-14T13:15:58;11.70;;;10.60;;
21192;SDS011;10754;51.106;7.164;2023-12-14T13:18:24;11.30;;;10.30;;
21192;SDS011;10754;51.106;7.164;2023-12-14T13:20:49;12.00;;;10.90;;
21192;SDS011;10754;51.106;7.164;2023-12-14T13:23:15;11.57;;;10.57;;
21192;SDS011;10754;51.106;7.164;2023-12-14T13:25:40;11.13;;;10.13;;
21192;SDS011;10754;51.106;7.164;2023-12-14T13:28:09;11.27;;;10.27;;
21192;SDS011;10754;51.106;7.164;2023-12-14T13:30:35;11.77;;;10.77;;
21192;SDS011;10754;51.106;7.164;2023-12-14T13:33:01;12.30;;;11.10;;
21192;SDS011;10754;51.106;7.164;2023-12-14T13:35:26;12.30;;;11.20;;
21192;SDS011;10754;51.106;7.164;2023-12-14T13:37:53;11.70;;;10.70;;
21192;SDS011;10754;51.106;7.164;2023-12-14T13:40:19;10.73;;;9.73;;
21192;SDS011;10754;51.106;7.164;2023-12-14T13:42:47;10.67;;;9.67;;
21192;SDS011;10754;51.106;7.164;2023-12-14T13:45:13;10.37;;;9.37;;
21192;SDS011;10754;51.106;7.164;2023-12-14T13:47:41;10.20;;;9.23;;
21192;SDS011;10754;51.106;7.164;2023-12-14T13:50:07;9.90;;;9.00;;
21192;SDS011;10754;51.106;7.164;2023-12-14T13:52:33;9.63;;;8.73;;
21192;SDS011;10754;51.106;7.164;2023-12-14T13:54:59;9.33;;;8.53;;
21192;SDS011;10754;51.106;7.164;2023-12-14T13:57:24;8.77;;;7.97;;
21192;SDS011;10754;51.106;7.164;2023-12-14T13:59:50;9.17;;;8.37;;
21192;SDS011;10754;51.106;7.164;2023-12-14T14:02:15;8.97;;;8.17;;
21192;SDS011;10754;51.106;7.164;2023-12-14T14:04:41;8.37;;;7.67;;
21192;SDS011;10754;51.106;7.164;2023-12-14T14:07:06;9.20;;;8.30;;
21192;SDS011;10754;51.106;7.164;2023-12-14T14:09:34;7.70;;;6.90;;
21192;SDS011;10754;51.106;7.164;2023-12-14T14:12:00;10.43;;;7.53;;
21192;SDS011;10754;51.106;7.164;2023-12-14T14:14:25;6.97;;;6.37;;
21192;SDS011;10754;51.106;7.164;2023-12-14T14:16:51;7.70;;;7.00;;
21192;SDS011;10754;51.106;7.164;2023-12-14T14:19:17;6.77;;;6.03;;
21192;SDS011;10754;51.106;7.164;2023-12-14T14:21:42;7.37;;;6.77;;
21192;SDS011;10754;51.106;7.164;2023-12-14T14:24:08;6.97;;;6.37;;
21192;SDS011;10754;51.106;7.164;2023-12-14T14:26:33;6.40;;;5.90;;
21192;SDS011;10754;51.106;7.164;2023-12-14T14:28:59;6.50;;;5.90;;
21192;SDS011;10754;51.106;7.164;2023-12-14T14:31:27;6.10;;;5.50;;
21192;SDS011;10754;51.106;7.164;2023-12-14T14:34:00;5.33;;;4.83;;
21192;SDS011;10754;51.106;7.164;2023-12-14T14:36:26;6.03;;;5.50;;
21192;SDS011;10754;51.106;7.164;2023-12-14T14:38:51;5.43;;;4.93;;
21192;SDS011;10754;51.106;7.164;2023-12-14T14:41:19;5.57;;;5.07;;
21192;SDS011;10754;51.106;7.164;2023-12-14T14:43:47;5.00;;;4.50;;
21192;SDS011;10754;51.106;7.164;2023-12-14T14:46:13;5.30;;;4.80;;
21192;SDS011;10754;51.106;7.164;2023-12-14T14:48:38;5.23;;;4.70;;
21192;SDS011;10754;51.106;7.164;2023-12-14T14:51:14;5.00;;;4.60;;
21192;SDS011;10754;51.106;7.164;2023-12-14T14:53:40;4.67;;;4.27;;
21192;SDS011;10754;51.106;7.164;2023-12-14T14:56:09;4.83;;;4.37;;
21192;SDS011;10754;51.106;7.164;2023-12-14T14:59:10;5.00;;;4.60;;
21192;SDS011;10754;51.106;7.164;2023-12-14T15:02:25;6.00;;;4.03;;
21192;SDS011;10754;51.106;7.164;2023-12-14T15:09:24;5.33;;;4.83;;
21192;SDS011;10754;51.106;7.164;2023-12-14T15:15:29;5.20;;;4.73;;
21192;SDS011;10754;51.106;7.164;2023-12-14T15:18:24;5.90;;;4.87;;
21192;SDS011;10754;51.106;7.164;2023-12-14T15:21:34;5.13;;;4.63;;
21192;SDS011;10754;51.106;7.164;2023-12-14T15:48:14;6.40;;;5.53;;
21192;SDS011;10754;51.106;7.164;2023-12-14T15:53:59;6.03;;;5.07;;
21192;SDS011;10754;51.106;7.164;2023-12-14T15:56:48;6.00;;;5.40;;
21192;SDS011;10754;51.106;7.164;2023-12-14T15:59:13;6.17;;;5.67;;
21192;SDS011;10754;51.106;7.164;2023-12-14T16:01:51;7.37;;;6.40;;
21192;SDS011;10754;51.106;7.164;2023-12-14T16:04:35;6.90;;;6.20;;
21192;SDS011;10754;51.106;7.164;2023-12-14T16:07:16;6.47;;;5.87;;
21192;SDS011;10754;51.106;7.164;2023-12-14T16:26:59;7.50;;;6.80;;
21192;SDS011;10754;51.106;7.164;2023-12-14T16:29:36;8.50;;;6.37;;
21192;SDS011;10754;51.106;7.164;2023-12-14T16:32:04;6.67;;;6.10;;
21192;SDS011;10754;51.106;7.164;2023-12-14T16:34:43;6.57;;;5.97;;
21192;SDS011;10754;51.106;7.164;2023-12-14T16:37:25;6.77;;;6.17;;
21192;SDS011;10754;51.106;7.164;2023-12-14T16:40:08;6.47;;;5.93;;
21192;SDS011;10754;51.106;7.164;2023-12-14T16:42:58;6.40;;;5.80;;
21192;SDS011;10754;51.106;7.164;2023-12-14T16:48:04;6.20;;;5.60;;
21192;SDS011;10754;51.106;7.164;2023-12-14T16:51:06;6.43;;;5.87;;
21192;SDS011;10754;51.106;7.164;2023-12-14T16:56:50;6.47;;;5.70;;
21192;SDS011;10754;51.106;7.164;2023-12-14T17:10:28;6.23;;;5.60;;
21192;SDS011;10754;51.106;7.164;2023-12-14T17:19:24;6.10;;;5.60;;
21192;SDS011;10754;51.106;7.164;2023-12-14T17:21:52;6.80;;;6.10;;
21192;SDS011;10754;51.106;7.164;2023-12-14T17:28:26;7.57;;;6.87;;
21192;SDS011;10754;51.106;7.164;2023-12-14T17:31:41;7.03;;;6.43;;
21192;SDS011;10754;51.106;7.164;2023-12-14T17:38:32;7.93;;;7.23;;
21192;SDS011;10754;51.106;7.164;2023-12-14T17:44:33;7.53;;;6.93;;
21192;SDS011;10754;51.106;7.164;2023-12-14T17:51:15;7.37;;;6.67;;
21192;SDS011;10754;51.106;7.164;2023-12-14T17:53:44;7.83;;;7.13;;
21192;SDS011;10754;51.106;7.164;2023-12-14T17:56:15;7.80;;;7.10;;
21192;SDS011;10754;51.106;7.164;2023-12-14T17:59:08;8.10;;;7.30;;
21192;SDS011;10754;51.106;7.164;2023-12-14T18:05:33;8.00;;;7.20;;
21192;SDS011;10754;51.106;7.164;2023-12-14T18:14:46;8.37;;;7.67;;
21192;SDS011;10754;51.106;7.164;2023-12-14T18:17:16;7.93;;;7.23;;
21192;SDS011;10754;51.106;7.164;2023-12-14T18:19:50;8.20;;;7.50;;
21192;SDS011;10754;51.106;7.164;2023-12-14T18:22:34;9.00;;;7.70;;
21192;SDS011;10754;51.106;7.164;2023-12-14T18:25:11;8.53;;;7.73;;
21192;SDS011;10754;51.106;7.164;2023-12-14T18:30:46;8.50;;;7.60;;
21192;SDS011;10754;51.106;7.164;2023-12-14T18:33:30;8.27;;;7.50;;
21192;SDS011;10754;51.106;7.164;2023-12-14T18:38:46;9.00;;;8.20;;
21192;SDS011;10754;51.106;7.164;2023-12-14T18:41:26;9.27;;;8.37;;
21192;SDS011;10754;51.106;7.164;2023-12-14T18:43:52;8.37;;;7.57;;
21192;SDS011;10754;51.106;7.164;2023-12-14T18:46:19;8.93;;;8.13;;
21192;SDS011;10754;51.106;7.164;2023-12-14T18:48:58;9.23;;;8.33;;